sensor_id;sensor_type;location;lat;lon;timestamp;temperature;humidity
11963;DHT22;62678;52.130;5.584;2023-06-14T00:02:01;19.30;99.90
11963;DHT22;62678;52.130;5.584;2023-06-14T00:04:28;19.30;99.90
11963;DHT22;62678;52.130;5.584;2023-06-14T00:06:55;19.20;99.90
11963;DHT22;62678;52.130;5.584;2023-06-14T00:09:23;19.20;99.90
11963;DHT22;62678;52.130;5.584;2023-06-14T00:11:50;19.20;99.90
11963;DHT22;62678;52.130;5.584;2023-06-14T00:14:18;19.30;99.90
11963;DHT22;62678;52.130;5.584;2023-06-14T00:16:45;19.20;99.90
11963;DHT22;62678;52.130;5.584;2023-06-14T00:19:13;19.20;99.90
11963;DHT22;62678;52.130;5.584;2023-06-14T00:21:41;19.20;99.90
11963;DHT22;62678;52.130;5.584;2023-06-14T00:24:08;19.20;99.90
11963;DHT22;62678;52.130;5.584;2023-06-14T00:26:35;19.10;99.90
11963;DHT22;62678;52.130;5.584;2023-06-14T00:29:02;19.10;99.90
11963;DHT22;62678;52.130;5.584;2023-06-14T00:31:30;19.10;99.90
11963;DHT22;62678;52.130;5.584;2023-06-14T00:33:57;19.00;99.90
11963;DHT22;62678;52.130;5.584;2023-06-14T00:36:24;19.00;99.90
11963;DHT22;62678;52.130;5.584;2023-06-14T00:38:51;19.00;99.90
11963;DHT22;62678;52.130;5.584;2023-06-14T00:41:19;19.00;99.90
11963;DHT22;62678;52.130;5.584;2023-06-14T00:43:46;18.90;99.90
11963;DHT22;62678;52.130;5.584;2023-06-14T00:46:13;18.90;99.90
11963;DHT22;62678;52.130;5.584;2023-06-14T00:48:42;18.80;99.90
11963;DHT22;62678;52.130;5.584;2023-06-14T00:51:09;18.80;99.90
11963;DHT22;62678;52.130;5.584;2023-06-14T00:53:36;18.80;99.90
11963;DHT22;62678;52.130;5.584;2023-06-14T00:56:05;18.70;99.90
11963;DHT22;62678;52.130;5.584;2023-06-14T00:58:32;18.70;99.90
11963;DHT22;62678;52.130;5.584;2023-06-14T01:00:59;18.70;99.90
11963;DHT22;62678;52.130;5.584;2023-06-14T01:03:27;18.70;99.90
11963;DHT22;62678;52.130;5.584;2023-06-14T01:06:04;18.70;99.90
11963;DHT22;62678;52.130;5.584;2023-06-14T01:08:43;18.60;99.90
11963;DHT22;62678;52.130;5.584;2023-06-14T01:11:18;18.60;99.90
11963;DHT22;62678;52.130;5.584;2023-06-14T01:13:50;18.40;99.90
11963;DHT22;62678;52.130;5.584;2023-06-14T01:16:18;18.50;99.90
11963;DHT22;62678;52.130;5.584;2023-06-14T01:18:46;18.40;99.90
11963;DHT22;62678;52.130;5.584;2023-06-14T01:21:22;18.40;99.90
11963;DHT22;62678;52.130;5.584;2023-06-14T01:23:51;18.30;99.90
11963;DHT22;62678;52.130;5.584;2023-06-14T01:26:20;18.30;99.90
11963;DHT22;62678;52.130;5.584;2023-06-14T01:28:48;18.20;99.90
11963;DHT22;62678;52.130;5.584;2023-06-14T01:31:19;18.20;99.90
11963;DHT22;62678;52.130;5.584;2023-06-14T01:33:48;18.10;99.90
11963;DHT22;62678;52.130;5.584;2023-06-14T01:36:16;18.10;99.90
11963;DHT22;62678;52.130;5.584;2023-06-14T01:38:46;18.00;99.90
11963;DHT22;62678;52.130;5.584;2023-06-14T01:41:15;18.10;99.90
11963;DHT22;62678;52.130;5.584;2023-06-14T01:43:43;18.00;99.90
11963;DHT22;62678;52.130;5.584;2023-06-14T01:46:11;17.90;99.90
11963;DHT22;62678;52.130;5.584;2023-06-14T01:48:38;18.00;99.90
11963;DHT22;62678;52.130;5.584;2023-06-14T01:51:05;17.90;99.90
11963;DHT22;62678;52.130;5.584;2023-06-14T01:53:32;17.90;99.90
11963;DHT22;62678;52.130;5.584;2023-06-14T01:55:58;17.90;99.90
11963;DHT22;62678;52.130;5.584;2023-06-14T01:58:28;17.90;99.90
11963;DHT22;62678;52.130;5.584;2023-06-14T02:00:55;17.80;99.90
11963;DHT22;62678;52.130;5.584;2023-06-14T02:03:22;17.70;99.90
11963;DHT22;62678;52.130;5.584;2023-06-14T02:05:50;17.70;99.90
11963;DHT22;62678;52.130;5.584;2023-06-14T02:08:17;17.60;99.90
11963;DHT22;62678;52.130;5.584;2023-06-14T02:10:44;17.60;99.90
11963;DHT22;62678;52.130;5.584;2023-06-14T02:13:10;17.50;99.90
11963;DHT22;62678;52.130;5.584;2023-06-14T02:15:39;17.50;99.90
11963;DHT22;62678;52.130;5.584;2023-06-14T02:18:09;17.40;99.90
11963;DHT22;62678;52.130;5.584;2023-06-14T02:20:36;17.40;99.90
11963;DHT22;62678;52.130;5.584;2023-06-14T02:23:03;17.40;99.90
11963;DHT22;62678;52.130;5.584;2023-06-14T02:25:30;17.30;99.90
11963;DHT22;62678;52.130;5.584;2023-06-14T02:27:57;17.30;99.90
11963;DHT22;62678;52.130;5.584;2023-06-14T02:30:24;17.20;99.90
11963;DHT22;62678;52.130;5.584;2023-06-14T02:32:52;17.20;99.90
11963;DHT22;62678;52.130;5.584;2023-06-14T02:35:19;17.10;99.90
11963;DHT22;62678;52.130;5.584;2023-06-14T02:37:47;17.10;99.90
11963;DHT22;62678;52.130;5.584;2023-06-14T02:40:14;17.10;99.90
11963;DHT22;62678;52.130;5.584;2023-06-14T02:42:41;17.10;99.90
11963;DHT22;62678;52.130;5.584;2023-06-14T02:45:10;17.10;99.90
11963;DHT22;62678;52.130;5.584;2023-06-14T02:47:37;17.00;99.90
11963;DHT22;62678;52.130;5.584;2023-06-14T02:50:07;17.00;99.90
11963;DHT22;62678;52.130;5.584;2023-06-14T02:52:37;17.00;99.90
11963;DHT22;62678;52.130;5.584;2023-06-14T02:55:07;16.90;99.90
11963;DHT22;62678;52.130;5.584;2023-06-14T02:57:35;16.80;99.90
11963;DHT22;62678;52.130;5.584;2023-06-14T03:00:03;16.80;99.90
11963;DHT22;62678;52.130;5.584;2023-06-14T03:02:29;16.80;99.90
11963;DHT22;62678;52.130;5.584;2023-06-14T03:04:56;16.70;99.90
11963;DHT22;62678;52.130;5.584;2023-06-14T03:07:28;16.70;99.90
11963;DHT22;62678;52.130;5.584;2023-06-14T03:09:55;16.70;99.90
11963;DHT22;62678;52.130;5.584;2023-06-14T03:12:22;16.60;99.90
11963;DHT22;62678;52.130;5.584;2023-06-14T03:14:49;16.60;99.90
11963;DHT22;62678;52.130;5.584;2023-06-14T03:17:16;16.50;99.90
11963;DHT22;62678;52.130;5.584;2023-06-14T03:19:45;16.50;99.90
11963;DHT22;62678;52.130;5.584;2023-06-14T03:22:11;16.50;99.90
11963;DHT22;62678;52.130;5.584;2023-06-14T03:24:40;16.50;99.90
11963;DHT22;62678;52.130;5.584;2023-06-14T03:27:08;16.50;99.90
11963;DHT22;62678;52.130;5.584;2023-06-14T03:29:35;16.40;99.90
11963;DHT22;62678;52.130;5.584;2023-06-14T03:32:03;16.30;99.90
11963;DHT22;62678;52.130;5.584;2023-06-14T03:34:30;16.30;99.90
11963;DHT22;62678;52.130;5.584;2023-06-14T03:36:57;16.30;99.90
11963;DHT22;62678;52.130;5.584;2023-06-14T03:39:24;16.40;99.90
11963;DHT22;62678;52.130;5.584;2023-06-14T03:41:52;16.40;99.90
11963;DHT22;62678;52.130;5.584;2023-06-14T03:44:19;16.40;99.90
11963;DHT22;62678;52.130;5.584;2023-06-14T03:46:46;16.40;99.90
11963;DHT22;62678;52.130;5.584;2023-06-14T03:49:13;16.40;99.90
11963;DHT22;62678;52.130;5.584;2023-06-14T03:51:41;16.30;99.90
11963;DHT22;62678;52.130;5.584;2023-06-14T03:54:08;16.30;99.90
11963;DHT22;62678;52.130;5.584;2023-06-14T03:56:35;16.40;99.90
11963;DHT22;62678;52.130;5.584;2023-06-14T03:59:04;16.30;99.90
11963;DHT22;62678;52.130;5.584;2023-06-14T04:01:30;16.40;99.90
11963;DHT22;62678;52.130;5.584;2023-06-14T04:03:59;16.40;99.90
11963;DHT22;62678;52.130;5.584;2023-06-14T04:06:26;16.50;99.90
11963;DHT22;62678;52.130;5.584;2023-06-14T04:08:59;16.50;99.90
11963;DHT22;62678;52.130;5.584;2023-06-14T04:11:29;16.50;99.90
11963;DHT22;62678;52.130;5.584;2023-06-14T04:13:56;16.50;99.90
11963;DHT22;62678;52.130;5.584;2023-06-14T04:16:24;16.60;99.90
11963;DHT22;62678;52.130;5.584;2023-06-14T04:18:51;16.70;99.90
11963;DHT22;62678;52.130;5.584;2023-06-14T04:21:18;16.70;99.90
11963;DHT22;62678;52.130;5.584;2023-06-14T04:23:46;16.70;99.90
11963;DHT22;62678;52.130;5.584;2023-06-14T04:26:13;16.80;99.90
11963;DHT22;62678;52.130;5.584;2023-06-14T04:28:41;16.80;99.90
11963;DHT22;62678;52.130;5.584;2023-06-14T04:31:10;16.80;99.90
11963;DHT22;62678;52.130;5.584;2023-06-14T04:33:38;16.90;99.90
11963;DHT22;62678;52.130;5.584;2023-06-14T04:36:09;16.90;99.90
11963;DHT22;62678;52.130;5.584;2023-06-14T04:38:37;17.00;99.90
11963;DHT22;62678;52.130;5.584;2023-06-14T04:41:04;17.00;99.90
11963;DHT22;62678;52.130;5.584;2023-06-14T04:43:31;17.00;99.90
11963;DHT22;62678;52.130;5.584;2023-06-14T04:46:04;17.10;99.90
11963;DHT22;62678;52.130;5.584;2023-06-14T04:48:40;17.20;99.90
11963;DHT22;62678;52.130;5.584;2023-06-14T04:51:08;17.30;99.90
11963;DHT22;62678;52.130;5.584;2023-06-14T04:53:35;17.40;99.90
11963;DHT22;62678;52.130;5.584;2023-06-14T04:56:03;17.50;99.90
11963;DHT22;62678;52.130;5.584;2023-06-14T04:58:30;17.50;99.90
11963;DHT22;62678;52.130;5.584;2023-06-14T05:00:57;17.60;99.90
11963;DHT22;62678;52.130;5.584;2023-06-14T05:03:25;17.70;99.90
11963;DHT22;62678;52.130;5.584;2023-06-14T05:05:53;17.70;99.90
11963;DHT22;62678;52.130;5.584;2023-06-14T05:08:21;17.70;99.90
11963;DHT22;62678;52.130;5.584;2023-06-14T05:10:49;17.70;99.90
11963;DHT22;62678;52.130;5.584;2023-06-14T05:13:16;17.80;99.90
11963;DHT22;62678;52.130;5.584;2023-06-14T05:15:43;17.90;99.90
11963;DHT22;62678;52.130;5.584;2023-06-14T05:18:10;18.00;99.90
11963;DHT22;62678;52.130;5.584;2023-06-14T05:20:38;18.00;99.90
11963;DHT22;62678;52.130;5.584;2023-06-14T05:23:08;18.10;99.90
11963;DHT22;62678;52.130;5.584;2023-06-14T05:25:41;18.10;99.90
11963;DHT22;62678;52.130;5.584;2023-06-14T05:28:08;18.20;99.90
11963;DHT22;62678;52.130;5.584;2023-06-14T05:30:37;18.20;99.90
11963;DHT22;62678;52.130;5.584;2023-06-14T05:33:05;18.20;99.90
11963;DHT22;62678;52.130;5.584;2023-06-14T05:35:32;18.30;99.90
11963;DHT22;62678;52.130;5.584;2023-06-14T05:37:59;18.40;99.90
11963;DHT22;62678;52.130;5.584;2023-06-14T05:40:28;18.60;99.90
11963;DHT22;62678;52.130;5.584;2023-06-14T05:42:55;18.60;99.90
11963;DHT22;62678;52.130;5.584;2023-06-14T05:45:22;18.70;99.90
11963;DHT22;62678;52.130;5.584;2023-06-14T05:47:49;18.60;99.90
11963;DHT22;62678;52.130;5.584;2023-06-14T05:50:16;18.70;99.90
11963;DHT22;62678;52.130;5.584;2023-06-14T05:52:43;18.80;99.90
11963;DHT22;62678;52.130;5.584;2023-06-14T05:55:10;18.90;99.90
11963;DHT22;62678;52.130;5.584;2023-06-14T05:57:39;18.90;99.90
11963;DHT22;62678;52.130;5.584;2023-06-14T06:00:08;19.00;99.90
11963;DHT22;62678;52.130;5.584;2023-06-14T06:02:40;19.00;99.90
11963;DHT22;62678;52.130;5.584;2023-06-14T06:05:08;19.20;99.90
11963;DHT22;62678;52.130;5.584;2023-06-14T06:07:35;19.30;99.90
11963;DHT22;62678;52.130;5.584;2023-06-14T06:10:02;19.50;99.90
11963;DHT22;62678;52.130;5.584;2023-06-14T06:12:28;19.70;99.90
11963;DHT22;62678;52.130;5.584;2023-06-14T06:14:57;19.70;99.90
11963;DHT22;62678;52.130;5.584;2023-06-14T06:17:24;19.90;99.90
11963;DHT22;62678;52.130;5.584;2023-06-14T06:19:51;19.90;99.90
11963;DHT22;62678;52.130;5.584;2023-06-14T06:22:17;19.90;99.90
11963;DHT22;62678;52.130;5.584;2023-06-14T06:24:44;20.00;99.90
11963;DHT22;62678;52.130;5.584;2023-06-14T06:27:11;20.20;99.90
11963;DHT22;62678;52.130;5.584;2023-06-14T06:29:38;20.20;99.90
11963;DHT22;62678;52.130;5.584;2023-06-14T06:32:07;20.20;99.90
11963;DHT22;62678;52.130;5.584;2023-06-14T06:34:34;20.20;99.90
11963;DHT22;62678;52.130;5.584;2023-06-14T06:37:03;20.40;99.90
11963;DHT22;62678;52.130;5.584;2023-06-14T06:39:29;20.30;99.90
11963;DHT22;62678;52.130;5.584;2023-06-14T06:41:56;20.40;99.90
11963;DHT22;62678;52.130;5.584;2023-06-14T06:44:23;20.50;99.90
11963;DHT22;62678;52.130;5.584;2023-06-14T06:46:50;20.70;99.90
11963;DHT22;62678;52.130;5.584;2023-06-14T06:49:18;20.60;99.90
11963;DHT22;62678;52.130;5.584;2023-06-14T06:51:59;20.70;99.90
11963;DHT22;62678;52.130;5.584;2023-06-14T06:54:26;20.80;99.90
11963;DHT22;62678;52.130;5.584;2023-06-14T06:56:53;20.90;99.90
11963;DHT22;62678;52.130;5.584;2023-06-14T06:59:20;21.10;99.90
11963;DHT22;62678;52.130;5.584;2023-06-14T07:01:47;21.30;99.90
11963;DHT22;62678;52.130;5.584;2023-06-14T07:04:14;21.30;99.90
11963;DHT22;62678;52.130;5.584;2023-06-14T07:06:43;21.30;99.90
11963;DHT22;62678;52.130;5.584;2023-06-14T07:09:10;21.40;99.90
11963;DHT22;62678;52.130;5.584;2023-06-14T07:11:38;21.50;99.90
11963;DHT22;62678;52.130;5.584;2023-06-14T07:14:05;21.60;99.90
11963;DHT22;62678;52.130;5.584;2023-06-14T07:16:32;21.60;99.90
11963;DHT22;62678;52.130;5.584;2023-06-14T07:18:59;21.60;99.90
11963;DHT22;62678;52.130;5.584;2023-06-14T07:21:26;21.80;99.90
11963;DHT22;62678;52.130;5.584;2023-06-14T07:23:54;21.90;99.90
11963;DHT22;62678;52.130;5.584;2023-06-14T07:26:22;22.00;99.90
11963;DHT22;62678;52.130;5.584;2023-06-14T07:28:49;22.10;99.90
11963;DHT22;62678;52.130;5.584;2023-06-14T07:31:16;22.20;99.90
11963;DHT22;62678;52.130;5.584;2023-06-14T07:33:45;22.00;99.90
11963;DHT22;62678;52.130;5.584;2023-06-14T07:36:12;22.10;99.90
11963;DHT22;62678;52.130;5.584;2023-06-14T07:38:38;22.30;99.90
11963;DHT22;62678;52.130;5.584;2023-06-14T07:41:07;22.40;99.90
11963;DHT22;62678;52.130;5.584;2023-06-14T07:43:34;22.30;99.90
11963;DHT22;62678;52.130;5.584;2023-06-14T07:46:01;22.40;99.90
11963;DHT22;62678;52.130;5.584;2023-06-14T07:48:28;22.50;99.90
11963;DHT22;62678;52.130;5.584;2023-06-14T07:50:55;22.60;99.90
11963;DHT22;62678;52.130;5.584;2023-06-14T07:53:22;22.70;99.90
11963;DHT22;62678;52.130;5.584;2023-06-14T07:55:49;22.70;99.90
11963;DHT22;62678;52.130;5.584;2023-06-14T07:58:17;22.70;99.90
11963;DHT22;62678;52.130;5.584;2023-06-14T08:00:44;22.80;99.90
11963;DHT22;62678;52.130;5.584;2023-06-14T08:03:11;23.00;99.90
11963;DHT22;62678;52.130;5.584;2023-06-14T08:05:38;23.00;99.90
11963;DHT22;62678;52.130;5.584;2023-06-14T08:08:05;23.20;99.90
11963;DHT22;62678;52.130;5.584;2023-06-14T08:10:32;23.30;99.90
11963;DHT22;62678;52.130;5.584;2023-06-14T08:12:58;23.20;99.90
11963;DHT22;62678;52.130;5.584;2023-06-14T08:15:27;23.10;99.90
11963;DHT22;62678;52.130;5.584;2023-06-14T08:17:54;23.20;99.90
11963;DHT22;62678;52.130;5.584;2023-06-14T08:20:21;23.20;99.90
11963;DHT22;62678;52.130;5.584;2023-06-14T08:22:50;23.40;99.90
11963;DHT22;62678;52.130;5.584;2023-06-14T08:25:20;23.50;99.90
11963;DHT22;62678;52.130;5.584;2023-06-14T08:27:47;23.60;99.90
11963;DHT22;62678;52.130;5.584;2023-06-14T08:30:15;23.70;99.90
11963;DHT22;62678;52.130;5.584;2023-06-14T08:32:44;23.70;99.90
11963;DHT22;62678;52.130;5.584;2023-06-14T08:35:11;23.70;99.90
11963;DHT22;62678;52.130;5.584;2023-06-14T08:37:41;23.50;99.90
11963;DHT22;62678;52.130;5.584;2023-06-14T08:40:18;23.80;99.90
11963;DHT22;62678;52.130;5.584;2023-06-14T08:42:48;24.00;99.90
11963;DHT22;62678;52.130;5.584;2023-06-14T08:45:16;24.20;99.90
11963;DHT22;62678;52.130;5.584;2023-06-14T08:47:45;24.10;99.90
11963;DHT22;62678;52.130;5.584;2023-06-14T08:50:20;24.00;99.90
11963;DHT22;62678;52.130;5.584;2023-06-14T08:52:48;24.20;99.90
11963;DHT22;62678;52.130;5.584;2023-06-14T08:55:18;24.20;99.90
11963;DHT22;62678;52.130;5.584;2023-06-14T08:57:47;24.30;99.90
11963;DHT22;62678;52.130;5.584;2023-06-14T09:00:15;24.60;99.90
11963;DHT22;62678;52.130;5.584;2023-06-14T09:02:42;24.70;99.90
11963;DHT22;62678;52.130;5.584;2023-06-14T09:05:11;24.70;99.90
11963;DHT22;62678;52.130;5.584;2023-06-14T09:07:39;24.60;99.90
11963;DHT22;62678;52.130;5.584;2023-06-14T09:10:08;24.30;99.90
11963;DHT22;62678;52.130;5.584;2023-06-14T09:12:36;24.40;99.90
11963;DHT22;62678;52.130;5.584;2023-06-14T09:15:03;24.60;99.90
11963;DHT22;62678;52.130;5.584;2023-06-14T09:17:33;24.50;99.90
11963;DHT22;62678;52.130;5.584;2023-06-14T09:20:01;24.70;99.90
11963;DHT22;62678;52.130;5.584;2023-06-14T09:22:32;24.30;99.90
11963;DHT22;62678;52.130;5.584;2023-06-14T09:25:00;24.40;99.90
11963;DHT22;62678;52.130;5.584;2023-06-14T09:27:27;24.40;99.90
11963;DHT22;62678;52.130;5.584;2023-06-14T09:29:55;24.60;99.90
11963;DHT22;62678;52.130;5.584;2023-06-14T09:32:22;24.60;99.90
11963;DHT22;62678;52.130;5.584;2023-06-14T09:34:49;24.90;99.90
11963;DHT22;62678;52.130;5.584;2023-06-14T09:37:27;25.00;99.90
11963;DHT22;62678;52.130;5.584;2023-06-14T09:39:56;25.00;99.90
11963;DHT22;62678;52.130;5.584;2023-06-14T09:42:23;24.80;99.90
11963;DHT22;62678;52.130;5.584;2023-06-14T09:44:52;24.70;99.90
11963;DHT22;62678;52.130;5.584;2023-06-14T09:47:19;25.10;99.90
11963;DHT22;62678;52.130;5.584;2023-06-14T09:49:46;25.30;99.90
11963;DHT22;62678;52.130;5.584;2023-06-14T09:52:15;25.30;99.90
11963;DHT22;62678;52.130;5.584;2023-06-14T09:54:43;25.00;99.90
11963;DHT22;62678;52.130;5.584;2023-06-14T09:57:14;25.00;99.90
11963;DHT22;62678;52.130;5.584;2023-06-14T09:59:43;24.80;99.90
11963;DHT22;62678;52.130;5.584;2023-06-14T10:02:14;24.80;99.90
11963;DHT22;62678;52.130;5.584;2023-06-14T10:04:50;25.20;99.90
11963;DHT22;62678;52.130;5.584;2023-06-14T10:07:19;25.10;99.90
11963;DHT22;62678;52.130;5.584;2023-06-14T10:09:47;24.90;99.90
11963;DHT22;62678;52.130;5.584;2023-06-14T10:12:17;24.70;99.90
11963;DHT22;62678;52.130;5.584;2023-06-14T10:14:48;24.90;99.90
11963;DHT22;62678;52.130;5.584;2023-06-14T10:17:23;25.20;99.90
11963;DHT22;62678;52.130;5.584;2023-06-14T10:19:55;25.40;99.90
11963;DHT22;62678;52.130;5.584;2023-06-14T10:22:26;25.60;99.90
11963;DHT22;62678;52.130;5.584;2023-06-14T10:24:56;25.60;99.90
11963;DHT22;62678;52.130;5.584;2023-06-14T10:27:24;25.70;99.90
11963;DHT22;62678;52.130;5.584;2023-06-14T10:30:05;25.70;99.90
11963;DHT22;62678;52.130;5.584;2023-06-14T10:32:32;25.90;99.90
11963;DHT22;62678;52.130;5.584;2023-06-14T10:35:00;25.60;99.90
11963;DHT22;62678;52.130;5.584;2023-06-14T10:37:28;25.70;99.90
11963;DHT22;62678;52.130;5.584;2023-06-14T10:39:55;25.70;99.90
11963;DHT22;62678;52.130;5.584;2023-06-14T10:42:27;25.50;99.90
11963;DHT22;62678;52.130;5.584;2023-06-14T10:45:01;25.50;99.90
11963;DHT22;62678;52.130;5.584;2023-06-14T10:47:29;25.30;99.90
11963;DHT22;62678;52.130;5.584;2023-06-14T10:50:02;25.20;99.90
11963;DHT22;62678;52.130;5.584;2023-06-14T10:52:33;25.30;99.90
11963;DHT22;62678;52.130;5.584;2023-06-14T10:55:02;25.50;99.90
11963;DHT22;62678;52.130;5.584;2023-06-14T10:57:33;25.50;99.90
11963;DHT22;62678;52.130;5.584;2023-06-14T11:00:01;25.50;99.90
11963;DHT22;62678;52.130;5.584;2023-06-14T11:05:51;25.80;99.90
11963;DHT22;62678;52.130;5.584;2023-06-14T11:08:37;25.70;99.90
11963;DHT22;62678;52.130;5.584;2023-06-14T11:11:07;25.90;99.90
11963;DHT22;62678;52.130;5.584;2023-06-14T11:13:38;26.00;99.90
11963;DHT22;62678;52.130;5.584;2023-06-14T11:16:11;26.20;99.90
11963;DHT22;62678;52.130;5.584;2023-06-14T11:18:38;26.40;99.90
11963;DHT22;62678;52.130;5.584;2023-06-14T11:21:05;26.40;99.90
11963;DHT22;62678;52.130;5.584;2023-06-14T11:23:32;26.20;99.90
11963;DHT22;62678;52.130;5.584;2023-06-14T11:25:59;26.10;99.90
11963;DHT22;62678;52.130;5.584;2023-06-14T11:28:37;25.80;99.90
11963;DHT22;62678;52.130;5.584;2023-06-14T11:31:05;25.40;99.90
11963;DHT22;62678;52.130;5.584;2023-06-14T11:33:31;25.70;99.90
11963;DHT22;62678;52.130;5.584;2023-06-14T11:35:58;25.80;99.90
11963;DHT22;62678;52.130;5.584;2023-06-14T11:38:28;25.80;99.90
11963;DHT22;62678;52.130;5.584;2023-06-14T11:40:58;25.90;99.90
11963;DHT22;62678;52.130;5.584;2023-06-14T11:43:25;25.80;99.90
11963;DHT22;62678;52.130;5.584;2023-06-14T11:45:54;26.20;99.90
11963;DHT22;62678;52.130;5.584;2023-06-14T11:48:21;26.40;99.90
11963;DHT22;62678;52.130;5.584;2023-06-14T11:50:50;26.40;99.90
11963;DHT22;62678;52.130;5.584;2023-06-14T11:53:17;26.20;99.90
11963;DHT22;62678;52.130;5.584;2023-06-14T11:55:44;26.60;99.90
11963;DHT22;62678;52.130;5.584;2023-06-14T11:58:13;26.80;99.90
11963;DHT22;62678;52.130;5.584;2023-06-14T12:00:40;27.00;99.90
11963;DHT22;62678;52.130;5.584;2023-06-14T12:03:11;27.00;99.90
11963;DHT22;62678;52.130;5.584;2023-06-14T12:05:38;27.00;99.90
11963;DHT22;62678;52.130;5.584;2023-06-14T12:08:06;26.90;99.90
11963;DHT22;62678;52.130;5.584;2023-06-14T12:10:40;27.10;99.90
11963;DHT22;62678;52.130;5.584;2023-06-14T12:13:09;27.20;99.90
11963;DHT22;62678;52.130;5.584;2023-06-14T12:15:36;27.30;99.90
11963;DHT22;62678;52.130;5.584;2023-06-14T12:18:05;27.30;99.90
11963;DHT22;62678;52.130;5.584;2023-06-14T12:20:34;27.30;99.90
11963;DHT22;62678;52.130;5.584;2023-06-14T12:23:03;27.20;99.90
11963;DHT22;62678;52.130;5.584;2023-06-14T12:25:32;27.30;99.90
11963;DHT22;62678;52.130;5.584;2023-06-14T12:28:03;27.40;99.90
11963;DHT22;62678;52.130;5.584;2023-06-14T12:30:30;27.50;99.90
11963;DHT22;62678;52.130;5.584;2023-06-14T12:32:57;27.10;99.90
11963;DHT22;62678;52.130;5.584;2023-06-14T12:35:24;27.10;99.90
11963;DHT22;62678;52.130;5.584;2023-06-14T12:37:52;26.90;99.90
11963;DHT22;62678;52.130;5.584;2023-06-14T12:40:19;27.10;99.90
11963;DHT22;62678;52.130;5.584;2023-06-14T12:42:46;27.40;99.90
11963;DHT22;62678;52.130;5.584;2023-06-14T12:45:13;27.30;99.90
11963;DHT22;62678;52.130;5.584;2023-06-14T12:47:40;27.50;99.90
11963;DHT22;62678;52.130;5.584;2023-06-14T12:50:08;27.50;99.90
11963;DHT22;62678;52.130;5.584;2023-06-14T12:52:35;27.40;99.90
11963;DHT22;62678;52.130;5.584;2023-06-14T12:55:04;27.50;99.90
11963;DHT22;62678;52.130;5.584;2023-06-14T12:57:32;27.50;99.90
11963;DHT22;62678;52.130;5.584;2023-06-14T13:00:02;27.50;99.90
11963;DHT22;62678;52.130;5.584;2023-06-14T13:02:30;27.70;99.90
11963;DHT22;62678;52.130;5.584;2023-06-14T13:04:57;27.70;99.90
11963;DHT22;62678;52.130;5.584;2023-06-14T13:07:24;27.60;99.90
11963;DHT22;62678;52.130;5.584;2023-06-14T13:09:51;27.70;99.90
11963;DHT22;62678;52.130;5.584;2023-06-14T13:12:19;27.50;99.90
11963;DHT22;62678;52.130;5.584;2023-06-14T13:14:46;27.60;99.90
11963;DHT22;62678;52.130;5.584;2023-06-14T13:17:13;27.80;99.90
11963;DHT22;62678;52.130;5.584;2023-06-14T13:19:43;27.80;99.90
11963;DHT22;62678;52.130;5.584;2023-06-14T13:22:10;27.50;99.90
11963;DHT22;62678;52.130;5.584;2023-06-14T13:24:36;27.50;99.90
11963;DHT22;62678;52.130;5.584;2023-06-14T13:27:04;27.80;99.90
11963;DHT22;62678;52.130;5.584;2023-06-14T13:29:32;27.80;99.90
11963;DHT22;62678;52.130;5.584;2023-06-14T13:32:01;27.90;99.90
11963;DHT22;62678;52.130;5.584;2023-06-14T13:34:28;28.10;99.90
11963;DHT22;62678;52.130;5.584;2023-06-14T13:36:55;28.20;99.90
11963;DHT22;62678;52.130;5.584;2023-06-14T13:39:22;27.90;99.90
11963;DHT22;62678;52.130;5.584;2023-06-14T13:41:49;28.00;99.90
11963;DHT22;62678;52.130;5.584;2023-06-14T13:44:15;28.20;99.90
11963;DHT22;62678;52.130;5.584;2023-06-14T13:46:45;28.40;99.90
11963;DHT22;62678;52.130;5.584;2023-06-14T13:49:12;27.90;99.90
11963;DHT22;62678;52.130;5.584;2023-06-14T13:51:39;27.90;99.90
11963;DHT22;62678;52.130;5.584;2023-06-14T13:54:05;28.40;99.90
11963;DHT22;62678;52.130;5.584;2023-06-14T13:56:32;28.60;99.90
11963;DHT22;62678;52.130;5.584;2023-06-14T13:58:59;28.70;99.90
11963;DHT22;62678;52.130;5.584;2023-06-14T14:01:26;28.80;99.90
11963;DHT22;62678;52.130;5.584;2023-06-14T14:03:55;28.80;99.90
11963;DHT22;62678;52.130;5.584;2023-06-14T14:06:24;28.90;99.90
11963;DHT22;62678;52.130;5.584;2023-06-14T14:08:51;29.20;99.90
11963;DHT22;62678;52.130;5.584;2023-06-14T14:11:18;29.00;99.90
11963;DHT22;62678;52.130;5.584;2023-06-14T14:13:46;28.80;99.90
11963;DHT22;62678;52.130;5.584;2023-06-14T14:16:13;29.00;99.90
11963;DHT22;62678;52.130;5.584;2023-06-14T14:18:40;29.00;99.90
11963;DHT22;62678;52.130;5.584;2023-06-14T14:21:08;28.90;99.90
11963;DHT22;62678;52.130;5.584;2023-06-14T14:23:35;28.70;99.90
11963;DHT22;62678;52.130;5.584;2023-06-14T14:26:02;29.00;99.90
11963;DHT22;62678;52.130;5.584;2023-06-14T14:28:29;29.10;99.90
11963;DHT22;62678;52.130;5.584;2023-06-14T14:30:56;29.00;99.90
11963;DHT22;62678;52.130;5.584;2023-06-14T14:33:23;28.90;99.90
11963;DHT22;62678;52.130;5.584;2023-06-14T14:35:50;29.30;99.90
11963;DHT22;62678;52.130;5.584;2023-06-14T14:38:18;30.10;99.90
11963;DHT22;62678;52.130;5.584;2023-06-14T14:40:45;30.70;99.90
11963;DHT22;62678;52.130;5.584;2023-06-14T14:43:12;31.00;99.90
11963;DHT22;62678;52.130;5.584;2023-06-14T14:45:38;31.40;99.90
11963;DHT22;62678;52.130;5.584;2023-06-14T14:48:05;31.70;99.90
11963;DHT22;62678;52.130;5.584;2023-06-14T14:50:32;32.10;99.90
11963;DHT22;62678;52.130;5.584;2023-06-14T14:52:59;32.80;99.90
11963;DHT22;62678;52.130;5.584;2023-06-14T14:55:28;32.90;99.90
11963;DHT22;62678;52.130;5.584;2023-06-14T14:57:56;33.00;99.90
11963;DHT22;62678;52.130;5.584;2023-06-14T15:00:23;33.00;99.90
11963;DHT22;62678;52.130;5.584;2023-06-14T15:02:49;33.00;99.90
11963;DHT22;62678;52.130;5.584;2023-06-14T15:05:16;33.30;1.00
11963;DHT22;62678;52.130;5.584;2023-06-14T15:07:43;33.30;1.00
11963;DHT22;62678;52.130;5.584;2023-06-14T15:10:11;33.70;1.00
11963;DHT22;62678;52.130;5.584;2023-06-14T15:12:39;33.70;6.70
11963;DHT22;62678;52.130;5.584;2023-06-14T15:15:07;33.20;22.90
11963;DHT22;62678;52.130;5.584;2023-06-14T15:17:34;33.40;24.20
11963;DHT22;62678;52.130;5.584;2023-06-14T15:20:01;33.50;48.90
11963;DHT22;62678;52.130;5.584;2023-06-14T15:22:28;32.30;20.70
11963;DHT22;62678;52.130;5.584;2023-06-14T15:24:55;32.50;84.60
11963;DHT22;62678;52.130;5.584;2023-06-14T15:27:22;32.10;99.90
11963;DHT22;62678;52.130;5.584;2023-06-14T15:29:51;32.60;99.90
11963;DHT22;62678;52.130;5.584;2023-06-14T15:32:18;33.90;99.90
11963;DHT22;62678;52.130;5.584;2023-06-14T15:34:45;34.40;99.90
11963;DHT22;62678;52.130;5.584;2023-06-14T15:37:12;34.80;99.90
11963;DHT22;62678;52.130;5.584;2023-06-14T15:39:39;34.90;99.90